createdAt,value
2023-05-12T00:00:58.355Z,13.00
2023-05-12T00:01:58.299Z,13.03
2023-05-12T00:02:58.435Z,13.03
2023-05-12T00:03:58.429Z,13.03
2023-05-12T00:04:58.349Z,13.06
2023-05-12T00:05:58.240Z,13.04
2023-05-12T00:06:58.230Z,13.04
2023-05-12T00:07:58.246Z,13.04
2023-05-12T00:08:58.216Z,13.04
2023-05-12T00:09:58.199Z,13.03
2023-05-12T00:10:58.193Z,13.03
2023-05-12T00:11:59.121Z,13.02
2023-05-12T00:12:58.210Z,13.03
2023-05-12T00:13:58.180Z,13.02
2023-05-12T00:14:58.135Z,13.03
2023-05-12T00:15:59.361Z,13.03
2023-05-12T00:16:58.202Z,13.03
2023-05-12T00:17:58.134Z,13.04
2023-05-12T00:18:58.151Z,13.03
2023-05-12T00:19:58.096Z,13.03
2023-05-12T00:20:58.107Z,13.03
2023-05-12T00:21:58.101Z,13.02
2023-05-12T00:22:58.106Z,13.03
2023-05-12T00:23:58.085Z,13.03
2023-05-12T00:24:58.060Z,13.03
2023-05-12T00:25:58.024Z,13.02
2023-05-12T00:26:59.069Z,13.03
2023-05-12T00:27:58.004Z,13.03
2023-05-12T00:28:58.000Z,13.03
2023-05-12T00:29:58.000Z,13.04
2023-05-12T00:30:57.981Z,13.03
2023-05-12T00:31:58.031Z,13.03
2023-05-12T00:32:57.977Z,13.03
2023-05-12T00:33:57.968Z,13.03
2023-05-12T00:34:57.925Z,13.03
2023-05-12T00:35:57.915Z,13.03
2023-05-12T00:36:57.898Z,13.04
2023-05-12T00:37:57.887Z,13.03
2023-05-12T00:38:57.901Z,13.02
2023-05-12T00:39:57.861Z,13.02
2023-05-12T00:40:57.861Z,13.02
2023-05-12T00:41:58.817Z,13.00
2023-05-12T00:42:57.835Z,13.00
2023-05-12T00:43:57.877Z,12.99
2023-05-12T00:44:57.824Z,12.96
2023-05-12T00:45:57.823Z,12.93
2023-05-12T00:46:57.800Z,12.88
2023-05-12T00:47:57.820Z,12.84
2023-05-12T00:48:57.793Z,12.82
2023-05-12T00:49:57.783Z,12.81
2023-05-12T00:50:57.748Z,12.81
2023-05-12T00:51:57.726Z,12.81
2023-05-12T00:52:57.714Z,12.79
2023-05-12T00:53:57.754Z,12.78
2023-05-12T00:54:57.719Z,12.75
2023-05-12T00:55:57.705Z,12.77
2023-05-12T00:56:57.944Z,12.75
2023-05-12T00:57:57.798Z,12.77
2023-05-12T00:58:57.699Z,12.77
2023-05-12T00:59:57.630Z,12.77
2023-05-12T01:00:57.679Z,12.79
2023-05-12T01:01:59.099Z,12.79
2023-05-12T01:02:57.725Z,12.81
2023-05-12T01:03:57.620Z,12.81
2023-05-12T01:04:57.640Z,12.81
2023-05-12T01:05:58.823Z,12.81
2023-05-12T01:06:57.569Z,12.81
2023-05-12T01:07:57.571Z,12.79
2023-05-12T01:08:57.562Z,12.79
2023-05-12T01:09:57.528Z,12.78
2023-05-12T01:10:57.525Z,12.77
2023-05-12T01:11:57.544Z,12.74
2023-05-12T01:12:57.513Z,12.75
2023-05-12T01:13:57.531Z,12.74
2023-05-12T01:14:57.533Z,12.75
2023-05-12T01:15:57.487Z,12.71
2023-05-12T01:16:57.487Z,12.70
2023-05-12T01:17:57.566Z,12.69
2023-05-12T01:18:57.478Z,12.71
2023-05-12T01:19:57.463Z,12.71
2023-05-12T01:20:57.414Z,12.74
2023-05-12T01:21:57.395Z,12.77
2023-05-12T01:22:57.382Z,12.81
2023-05-12T01:23:57.363Z,12.82
2023-05-12T01:24:57.397Z,12.84
2023-05-12T01:25:57.341Z,12.85
2023-05-12T01:26:58.310Z,12.87
2023-05-12T01:27:57.324Z,12.89
2023-05-12T01:28:57.324Z,12.89
2023-05-12T01:29:57.328Z,12.92
2023-05-12T01:30:57.333Z,12.93
2023-05-12T01:31:57.285Z,12.95
2023-05-12T01:32:57.345Z,12.93
2023-05-12T01:33:57.281Z,12.96
2023-05-12T01:34:57.277Z,12.92
2023-05-12T01:35:57.263Z,12.89
2023-05-12T01:36:57.221Z,12.88
2023-05-12T01:37:57.204Z,12.85
2023-05-12T01:38:57.229Z,12.82
2023-05-12T01:39:57.190Z,12.81
2023-05-12T01:40:57.240Z,12.79
2023-05-12T01:41:57.194Z,12.77
2023-05-12T01:42:57.157Z,12.75
2023-05-12T01:43:57.157Z,12.74
2023-05-12T01:44:57.208Z,12.70
2023-05-12T01:45:57.250Z,12.69
2023-05-12T01:46:57.147Z,12.67
2023-05-12T01:47:57.171Z,12.67
2023-05-12T01:48:57.098Z,12.66
2023-05-12T01:49:57.079Z,12.66
2023-05-12T01:50:57.062Z,12.66
2023-05-12T01:51:57.072Z,12.67
2023-05-12T01:52:57.264Z,12.67
2023-05-12T01:53:57.031Z,12.70
2023-05-12T01:54:57.034Z,12.69
2023-05-12T01:55:57.027Z,12.71
2023-05-12T01:56:56.994Z,12.74
2023-05-12T01:57:56.990Z,12.71
2023-05-12T01:58:57.041Z,12.74
2023-05-12T01:59:56.978Z,12.75
2023-05-12T02:00:56.962Z,12.77
2023-05-12T02:01:57.009Z,12.77
2023-05-12T02:02:57.104Z,12.78
2023-05-12T02:03:57.028Z,12.79
2023-05-12T02:04:56.927Z,12.81
2023-05-12T02:05:56.881Z,12.82
2023-05-12T02:06:56.886Z,12.82
2023-05-12T02:07:57.851Z,12.82
2023-05-12T02:08:57.851Z,12.84
2023-05-12T02:09:56.893Z,12.84
2023-05-12T02:10:56.836Z,12.85
2023-05-12T02:11:56.824Z,12.87
2023-05-12T02:12:56.847Z,12.87
2023-05-12T02:13:56.820Z,12.88
2023-05-12T02:14:56.796Z,12.87
2023-05-12T02:15:56.789Z,12.89
2023-05-12T02:16:56.769Z,12.89
2023-05-12T02:17:56.772Z,12.89
2023-05-12T02:18:56.813Z,12.88
2023-05-12T02:19:56.756Z,12.89
2023-05-12T02:20:56.821Z,12.89
2023-05-12T02:21:56.990Z,12.92
2023-05-12T02:22:56.704Z,12.89
2023-05-12T02:23:56.684Z,12.89
2023-05-12T02:24:56.700Z,12.89
2023-05-12T02:25:56.682Z,12.87
2023-05-12T02:26:56.652Z,12.88
2023-05-12T02:27:56.676Z,12.88
2023-05-12T02:28:56.649Z,12.84
2023-05-12T02:29:56.653Z,12.85
2023-05-12T02:30:56.610Z,12.84
2023-05-12T02:31:56.658Z,12.81
2023-05-12T02:32:56.666Z,12.79
2023-05-12T02:33:56.614Z,12.81
2023-05-12T02:34:56.705Z,12.81
2023-05-12T02:35:56.703Z,12.81
2023-05-12T02:36:56.602Z,12.79
2023-05-12T02:37:56.527Z,12.81
2023-05-12T02:38:56.521Z,12.82
2023-05-12T02:39:56.501Z,12.81
2023-05-12T02:40:56.505Z,12.78
2023-05-12T02:41:56.477Z,12.74
2023-05-12T02:42:56.517Z,12.71
2023-05-12T02:43:56.489Z,12.71
2023-05-12T02:44:56.511Z,12.70
2023-05-12T02:45:56.501Z,12.70
2023-05-12T02:46:56.475Z,12.69
2023-05-12T02:47:56.427Z,12.70
2023-05-12T02:48:56.431Z,12.71
2023-05-12T02:49:56.425Z,12.75
2023-05-12T02:50:56.403Z,12.75
2023-05-12T02:51:56.372Z,12.77
2023-05-12T02:52:56.404Z,12.74
2023-05-12T02:53:56.359Z,12.71
2023-05-12T02:54:56.381Z,12.75
2023-05-12T02:55:56.345Z,12.75
2023-05-12T02:56:56.336Z,12.75
2023-05-12T02:57:56.320Z,12.71
2023-05-12T02:58:56.303Z,12.71
2023-05-12T02:59:56.512Z,12.75
2023-05-12T03:01:06.790Z,12.74
2023-05-12T03:01:57.309Z,12.77
2023-05-12T03:02:56.348Z,12.75
2023-05-12T03:03:56.299Z,12.75
2023-05-12T03:04:56.228Z,12.75
2023-05-12T03:05:56.241Z,12.77
2023-05-12T03:06:56.243Z,12.77
2023-05-12T03:07:56.190Z,12.77
2023-05-12T03:08:56.188Z,12.77
2023-05-12T03:09:56.164Z,12.75
2023-05-12T03:10:56.206Z,12.77
2023-05-12T03:11:56.167Z,12.77
2023-05-12T03:12:56.141Z,12.77
2023-05-12T03:13:56.135Z,12.75
2023-05-12T03:14:56.108Z,12.75
2023-05-12T03:15:56.094Z,12.75
2023-05-12T03:16:56.162Z,12.74
2023-05-12T03:17:56.096Z,12.77
2023-05-12T03:18:56.181Z,12.74
2023-05-12T03:19:56.093Z,12.74
2023-05-12T03:20:56.059Z,12.74
2023-05-12T03:21:56.071Z,12.70
2023-05-12T03:22:56.067Z,12.70
2023-05-12T03:23:56.066Z,12.71
2023-05-12T03:24:56.045Z,12.71
2023-05-12T03:25:55.997Z,12.71
2023-05-12T03:26:56.028Z,12.70
2023-05-12T03:27:55.989Z,12.70
2023-05-12T03:28:55.963Z,12.70
2023-05-12T03:29:55.941Z,12.70
2023-05-12T03:30:55.990Z,12.71
2023-05-12T03:31:55.944Z,12.71
2023-05-12T03:32:56.019Z,12.71
2023-05-12T03:33:55.897Z,12.74
2023-05-12T03:34:55.942Z,12.75
2023-05-12T03:35:55.888Z,12.70
2023-05-12T03:36:55.903Z,12.71
2023-05-12T03:37:55.875Z,12.66
2023-05-12T03:38:55.888Z,12.59
2023-05-12T03:39:55.826Z,12.57
2023-05-12T03:40:55.819Z,12.57
2023-05-12T03:41:55.814Z,12.57
2023-05-12T03:42:55.829Z,12.59
2023-05-12T03:43:55.827Z,12.60
2023-05-12T03:44:55.799Z,12.60
2023-05-12T03:45:55.821Z,12.60
2023-05-12T03:46:55.874Z,12.60
2023-05-12T03:47:55.837Z,12.63
2023-05-12T03:48:55.741Z,12.60
2023-05-12T03:49:55.733Z,12.63
2023-05-12T03:50:55.721Z,12.66
2023-05-12T03:51:55.726Z,12.66
2023-05-12T03:52:55.722Z,12.64
2023-05-12T03:53:55.701Z,12.64
2023-05-12T03:54:55.670Z,12.63
2023-05-12T03:55:55.655Z,12.64
2023-05-12T03:56:55.653Z,12.66
2023-05-12T03:57:55.668Z,12.66
2023-05-12T03:58:55.660Z,12.66
2023-05-12T03:59:55.626Z,12.67
2023-05-12T04:00:55.635Z,12.67
2023-05-12T04:01:55.583Z,12.67
2023-05-12T04:02:55.711Z,12.67
2023-05-12T04:03:55.781Z,12.67
2023-05-12T04:04:55.568Z,12.67
2023-05-12T04:05:55.545Z,12.69
2023-05-12T04:06:55.530Z,12.70
2023-05-12T04:07:55.528Z,12.70
2023-05-12T04:08:55.538Z,12.70
2023-05-12T04:09:55.507Z,12.75
2023-05-12T04:10:55.480Z,12.75
2023-05-12T04:11:55.485Z,12.77
2023-05-12T04:12:55.461Z,12.78
2023-05-12T04:13:55.488Z,12.78
2023-05-12T04:14:55.434Z,12.78
2023-05-12T04:15:55.440Z,12.78
2023-05-12T04:16:55.463Z,12.77
2023-05-12T04:17:55.456Z,12.75
2023-05-12T04:18:55.478Z,12.77
2023-05-12T04:19:55.420Z,12.75
2023-05-12T04:20:55.390Z,12.77
2023-05-12T04:21:55.371Z,12.77
2023-05-12T04:22:55.366Z,12.78
2023-05-12T04:23:55.387Z,12.78
2023-05-12T04:24:55.352Z,12.78
2023-05-12T04:25:55.322Z,12.77
2023-05-12T04:26:55.301Z,12.75
2023-05-12T04:27:55.301Z,12.77
2023-05-12T04:28:55.338Z,12.77
2023-05-12T04:29:55.296Z,12.74
2023-05-12T04:30:55.281Z,12.75
2023-05-12T04:31:55.335Z,12.74
2023-05-12T04:32:55.249Z,12.77
2023-05-12T04:33:55.278Z,12.77
2023-05-12T04:34:56.099Z,12.78
2023-05-12T04:35:55.296Z,12.79
2023-05-12T04:36:55.207Z,12.81
2023-05-12T04:37:55.261Z,12.81
2023-05-12T04:38:55.186Z,12.81
2023-05-12T04:39:55.199Z,12.82
2023-05-12T04:40:55.146Z,12.84
2023-05-12T04:41:55.159Z,12.82
2023-05-12T04:42:55.115Z,12.85
2023-05-12T04:44:55.099Z,12.84
2023-05-12T04:45:55.195Z,12.88
2023-05-12T04:46:55.100Z,12.87
2023-05-12T04:47:55.105Z,12.85
2023-05-12T04:48:55.093Z,12.85
2023-05-12T04:49:55.049Z,12.85
2023-05-12T04:50:55.790Z,12.85
2023-05-12T04:51:55.065Z,12.88
2023-05-12T04:52:55.184Z,12.87
2023-05-12T04:53:55.005Z,12.88
2023-05-12T04:54:55.781Z,12.89
2023-05-12T04:55:54.983Z,12.89
2023-05-12T04:56:54.976Z,12.92
2023-05-12T04:57:54.958Z,12.92
2023-05-12T04:58:54.959Z,12.95
2023-05-12T04:59:54.959Z,12.93
2023-05-12T05:00:54.971Z,12.92
2023-05-12T05:01:55.798Z,12.92
2023-05-12T05:02:54.985Z,12.92
2023-05-12T05:03:54.949Z,12.89
2023-05-12T05:04:54.902Z,12.88
2023-05-12T05:05:54.880Z,12.89
2023-05-12T05:06:54.859Z,12.87
2023-05-12T05:07:54.847Z,12.88
2023-05-12T05:08:54.839Z,12.88
2023-05-12T05:09:54.844Z,12.92
2023-05-12T05:10:54.825Z,12.93
2023-05-12T05:11:54.811Z,12.99
2023-05-12T05:12:54.791Z,13.00
2023-05-12T05:13:54.802Z,13.02
2023-05-12T05:14:54.785Z,13.03
2023-05-12T05:15:54.775Z,13.03
2023-05-12T05:16:54.736Z,13.04
2023-05-12T05:17:54.747Z,13.07
2023-05-12T05:18:54.733Z,13.07
2023-05-12T05:19:58.930Z,13.09
2023-05-12T05:20:58.369Z,13.09
2023-05-12T05:21:54.688Z,13.12
2023-05-12T05:22:54.675Z,13.12
2023-05-12T05:23:54.691Z,13.14
2023-05-12T05:24:54.646Z,13.17
2023-05-12T05:25:54.655Z,13.20
2023-05-12T05:26:54.617Z,13.21
2023-05-12T05:27:54.632Z,13.24
2023-05-12T05:28:54.613Z,13.25
2023-05-12T05:29:54.597Z,13.27
2023-05-12T05:30:54.688Z,13.27
2023-05-12T05:31:54.624Z,13.29
2023-05-12T05:32:54.587Z,13.29
2023-05-12T05:33:54.614Z,13.30
2023-05-12T05:34:54.550Z,13.30
2023-05-12T05:35:54.528Z,13.33
2023-05-12T05:36:54.503Z,13.36
2023-05-12T05:37:54.493Z,13.38
2023-05-12T05:38:54.481Z,13.38
2023-05-12T05:39:54.504Z,13.38
2023-05-12T05:40:54.861Z,13.41
2023-05-12T05:41:54.501Z,13.44
2023-05-12T05:42:54.444Z,13.40
2023-05-12T05:43:54.436Z,13.43
2023-05-12T05:44:54.433Z,13.43
2023-05-12T05:45:54.429Z,13.46
2023-05-12T05:46:54.441Z,13.43
2023-05-12T05:47:54.521Z,13.41
2023-05-12T05:48:54.388Z,13.37
2023-05-12T05:49:54.375Z,13.33
2023-05-12T05:50:54.371Z,13.30
2023-05-12T05:51:54.368Z,13.32
2023-05-12T05:52:54.317Z,13.33
2023-05-12T05:53:54.360Z,13.38
2023-05-12T05:54:54.336Z,13.41
2023-05-12T05:55:54.321Z,13.47
2023-05-12T05:56:54.276Z,13.52
2023-05-12T05:57:54.273Z,13.54
2023-05-12T05:58:54.258Z,13.56
2023-05-12T05:59:54.249Z,13.55
2023-05-12T06:00:54.250Z,13.56
2023-05-12T06:01:54.254Z,13.59
2023-05-12T06:02:54.271Z,13.62
2023-05-12T06:03:54.292Z,13.67
2023-05-12T06:04:54.193Z,13.71
2023-05-12T06:05:54.239Z,13.73
2023-05-12T06:06:54.172Z,13.76
2023-05-12T06:07:54.171Z,13.74
2023-05-12T06:08:54.194Z,13.74
2023-05-12T06:09:54.132Z,13.70
2023-05-12T06:10:54.119Z,13.63
2023-05-12T06:11:54.125Z,13.62
2023-05-12T06:12:54.111Z,13.62
2023-05-12T06:13:54.134Z,13.65
2023-05-12T06:14:54.057Z,13.69
2023-05-12T06:15:54.088Z,13.73
2023-05-12T06:16:54.156Z,13.69
2023-05-12T06:17:54.056Z,13.71
2023-05-12T06:18:54.046Z,13.76
2023-05-12T06:19:54.030Z,13.79
2023-05-12T06:20:54.032Z,13.81
2023-05-12T06:21:53.996Z,13.79
2023-05-12T06:22:54.005Z,13.83
2023-05-12T06:23:53.996Z,13.77
2023-05-12T06:24:54.680Z,13.79
2023-05-12T06:25:53.964Z,13.84
2023-05-12T06:26:53.927Z,13.89
2023-05-12T06:27:53.940Z,13.92
2023-05-12T06:28:53.950Z,13.98
2023-05-12T06:29:53.903Z,14.04
2023-05-12T06:30:53.930Z,14.09
2023-05-12T06:31:53.914Z,14.13
2023-05-12T06:32:53.941Z,14.16
2023-05-12T06:33:53.879Z,14.21
2023-05-12T06:34:53.848Z,14.28
2023-05-12T06:35:53.859Z,14.32
2023-05-12T06:36:54.982Z,14.37
2023-05-12T06:37:53.808Z,14.32
2023-05-12T06:38:53.836Z,14.27
2023-05-12T06:39:53.825Z,14.25
2023-05-12T06:40:53.779Z,14.27
2023-05-12T06:41:53.773Z,14.31
2023-05-12T06:42:53.758Z,14.37
2023-05-12T06:43:53.789Z,14.42
2023-05-12T06:44:53.744Z,14.46
2023-05-12T06:45:53.751Z,14.52
2023-05-12T06:46:53.754Z,14.54
2023-05-12T06:47:53.742Z,14.60
2023-05-12T06:48:53.686Z,14.62
2023-05-12T06:49:53.713Z,14.68
2023-05-12T06:50:53.666Z,14.71
2023-05-12T06:51:53.653Z,14.72
2023-05-12T06:52:53.659Z,14.78
2023-05-12T06:53:53.636Z,14.86
2023-05-12T06:54:53.659Z,14.90
2023-05-12T06:55:54.564Z,14.93
2023-05-12T06:56:54.586Z,14.94
2023-05-12T06:57:53.596Z,14.88
2023-05-12T06:58:53.570Z,14.90
2023-05-12T06:59:53.612Z,14.88
2023-05-12T07:00:53.556Z,14.88
2023-05-12T07:01:53.583Z,14.91
2023-05-12T07:02:53.598Z,14.94
2023-05-12T07:03:53.560Z,14.99
2023-05-12T07:04:53.542Z,14.94
2023-05-12T07:05:53.555Z,14.95
2023-05-12T07:06:53.491Z,14.95
2023-05-12T07:07:53.533Z,15.03
2023-05-12T07:08:53.468Z,14.90
2023-05-12T07:09:53.451Z,14.83
2023-05-12T07:10:53.468Z,14.83
2023-05-12T07:11:53.447Z,14.84
2023-05-12T07:12:53.404Z,14.80
2023-05-12T07:13:53.430Z,14.88
2023-05-12T07:14:53.387Z,14.94
2023-05-12T07:15:53.511Z,15.06
2023-05-12T07:16:53.387Z,15.11
2023-05-12T07:17:53.406Z,15.15
2023-05-12T07:18:53.357Z,15.11
2023-05-12T07:19:53.338Z,15.11
2023-05-12T07:20:53.354Z,15.17
2023-05-12T07:21:54.269Z,15.21
2023-05-12T07:22:53.289Z,15.08
2023-05-12T07:23:53.302Z,15.08
2023-05-12T07:24:53.431Z,15.12
2023-05-12T07:25:53.297Z,15.20
2023-05-12T07:26:53.275Z,15.27
2023-05-12T07:27:53.250Z,15.31
2023-05-12T07:28:53.213Z,15.38
2023-05-12T07:29:53.219Z,15.39
2023-05-12T07:30:53.288Z,15.45
2023-05-12T07:31:53.268Z,15.48
2023-05-12T07:32:53.253Z,15.57
2023-05-12T07:33:53.198Z,15.45
2023-05-12T07:34:53.194Z,15.30
2023-05-12T07:35:53.175Z,15.28
2023-05-12T07:36:53.138Z,15.33
2023-05-12T07:37:53.144Z,15.41
2023-05-12T07:38:53.127Z,15.42
2023-05-12T07:39:53.101Z,15.42
2023-05-12T07:40:53.112Z,15.36
2023-05-12T07:41:53.081Z,15.45
2023-05-12T07:42:53.065Z,15.57
2023-05-12T07:43:53.093Z,15.60
2023-05-12T07:44:53.041Z,15.51
2023-05-12T07:45:53.106Z,15.59
2023-05-12T07:46:53.059Z,15.68
2023-05-12T07:47:53.128Z,15.74
2023-05-12T07:48:53.054Z,15.85
2023-05-12T07:49:53.037Z,15.94
2023-05-12T07:50:52.969Z,15.99
2023-05-12T07:51:52.996Z,16.06
2023-05-12T07:52:52.968Z,16.15
2023-05-12T07:53:52.972Z,16.25
2023-05-12T07:54:52.978Z,16.15
2023-05-12T07:55:52.919Z,16.07
2023-05-12T07:56:52.914Z,16.12
2023-05-12T07:57:52.949Z,16.00
2023-05-12T07:58:52.915Z,15.92
2023-05-12T07:59:52.909Z,15.89
2023-05-12T08:00:52.861Z,15.97
2023-05-12T08:01:54.090Z,16.12
2023-05-12T08:02:53.025Z,16.26
2023-05-12T08:03:52.996Z,16.33
2023-05-12T08:04:52.859Z,16.41
2023-05-12T08:05:52.825Z,16.55
2023-05-12T08:06:52.795Z,16.63
2023-05-12T08:07:52.782Z,16.68
2023-05-12T08:08:52.767Z,16.73
2023-05-12T08:09:52.804Z,16.75
2023-05-12T08:10:52.756Z,16.75
2023-05-12T08:11:52.750Z,16.70
2023-05-12T08:12:52.729Z,16.77
2023-05-12T08:13:52.727Z,16.90
2023-05-12T08:14:52.725Z,16.95
2023-05-12T08:15:52.700Z,17.10
2023-05-12T08:16:52.766Z,17.22
2023-05-12T08:17:54.454Z,17.30
2023-05-12T08:18:52.784Z,17.41
2023-05-12T08:19:52.684Z,17.50
2023-05-12T08:20:52.640Z,17.59
2023-05-12T08:21:52.665Z,17.67
2023-05-12T08:22:52.623Z,17.67
2023-05-12T08:23:52.616Z,17.69
2023-05-12T08:24:52.639Z,17.67
2023-05-12T08:25:52.601Z,17.44
2023-05-12T08:26:52.562Z,17.43
2023-05-12T08:27:52.554Z,17.38
2023-05-12T08:28:52.594Z,17.43
2023-05-12T08:29:52.544Z,17.40
2023-05-12T08:30:52.564Z,17.40
2023-05-12T08:31:52.532Z,17.35
2023-05-12T08:32:52.548Z,17.35
2023-05-12T08:34:08.908Z,17.38
2023-05-12T08:34:53.504Z,17.35
2023-05-12T08:35:52.479Z,17.40
2023-05-12T08:36:52.466Z,17.50
2023-05-12T08:37:52.442Z,17.55
2023-05-12T08:38:52.449Z,17.62
2023-05-12T08:39:52.432Z,17.64
2023-05-12T08:40:52.417Z,17.64
2023-05-12T08:41:52.409Z,17.63
2023-05-12T08:42:52.388Z,17.73
2023-05-12T08:43:52.366Z,17.84
2023-05-12T08:44:52.431Z,17.89
2023-05-12T08:45:52.365Z,18.02
2023-05-12T08:46:52.540Z,18.10
2023-05-12T08:47:52.381Z,18.24
2023-05-12T08:48:52.350Z,18.34
2023-05-12T08:49:52.615Z,18.42
2023-05-12T08:50:52.302Z,18.44
2023-05-12T08:51:57.835Z,18.52
2023-05-12T08:52:53.271Z,18.58
2023-05-12T08:53:52.254Z,18.64
2023-05-12T08:54:56.092Z,18.61
2023-05-12T08:57:09.722Z,18.61
2023-05-12T08:57:52.226Z,18.57
2023-05-12T08:58:52.224Z,18.47
2023-05-12T08:59:52.205Z,18.50
2023-05-12T09:00:52.291Z,18.55
2023-05-12T09:01:53.935Z,18.55
2023-05-12T09:02:54.346Z,18.59
2023-05-12T09:03:52.174Z,18.68
2023-05-12T09:04:52.214Z,18.68
2023-05-12T09:05:52.157Z,18.64
2023-05-12T09:06:54.360Z,18.61
2023-05-12T09:07:52.809Z,18.49
2023-05-12T09:08:52.113Z,18.50
2023-05-12T09:09:53.060Z,18.54
2023-05-12T09:10:52.091Z,18.50
2023-05-12T09:11:52.066Z,18.44
2023-05-12T09:12:52.041Z,18.49
2023-05-12T09:13:52.084Z,18.50
2023-05-12T09:14:52.019Z,18.62
2023-05-12T09:15:52.034Z,18.70
2023-05-12T09:16:52.202Z,18.74
2023-05-12T09:17:52.031Z,18.77
2023-05-12T09:18:52.054Z,18.84
2023-05-12T09:19:51.965Z,18.70
2023-05-12T09:20:51.982Z,18.67
2023-05-12T09:21:51.947Z,18.72
2023-05-12T09:22:51.946Z,18.68
2023-05-12T09:23:51.924Z,18.80
2023-05-12T09:24:51.925Z,18.82
2023-05-12T09:25:51.894Z,18.86
2023-05-12T09:26:51.881Z,18.90
2023-05-12T09:27:51.901Z,18.97
2023-05-12T09:28:51.858Z,19.08
2023-05-12T09:29:59.396Z,19.10
2023-05-12T09:30:52.839Z,19.13
2023-05-12T09:31:51.953Z,19.15
2023-05-12T09:32:51.867Z,19.18
2023-05-12T09:33:51.807Z,19.18
2023-05-12T09:34:51.810Z,19.17
2023-05-12T09:35:51.783Z,19.14
2023-05-12T09:36:51.802Z,19.21
2023-05-12T09:37:51.768Z,19.23
2023-05-12T09:38:51.778Z,19.14
2023-05-12T09:39:51.735Z,19.14
2023-05-12T09:40:51.751Z,19.20
2023-05-12T09:41:51.745Z,19.21
2023-05-12T09:42:51.696Z,19.29
2023-05-12T09:43:51.710Z,19.31
2023-05-12T09:44:51.712Z,19.33
2023-05-12T09:45:51.739Z,19.38
2023-05-12T09:46:51.701Z,19.39
2023-05-12T09:47:51.720Z,19.40
2023-05-12T09:48:51.663Z,19.40
2023-05-12T09:49:51.625Z,19.39
2023-05-12T09:50:51.600Z,19.48
2023-05-12T09:51:51.633Z,19.43
2023-05-12T09:52:51.591Z,19.42
2023-05-12T09:53:51.597Z,19.46
2023-05-12T09:54:51.559Z,19.51
2023-05-12T09:55:51.568Z,19.60
2023-05-12T09:56:51.548Z,19.63
2023-05-12T09:57:51.543Z,19.65
2023-05-12T09:58:51.546Z,19.66
2023-05-12T09:59:51.503Z,19.70
2023-05-12T10:01:17.834Z,19.73
2023-05-12T10:01:52.519Z,19.73
2023-05-12T10:02:51.528Z,19.73
2023-05-12T10:03:51.466Z,19.75
2023-05-12T10:04:51.849Z,19.75
2023-05-12T10:05:51.587Z,19.86
2023-05-12T10:06:51.416Z,19.84
2023-05-12T10:07:51.402Z,19.80
2023-05-12T10:08:51.421Z,19.80
2023-05-12T10:09:51.430Z,19.79
2023-05-12T10:10:51.384Z,19.88
2023-05-12T10:11:53.486Z,19.95
2023-05-12T10:12:51.362Z,19.93
2023-05-12T10:13:51.378Z,19.93
2023-05-12T10:14:51.352Z,20.03
2023-05-12T10:15:51.320Z,20.08
2023-05-12T10:16:51.388Z,20.12
2023-05-12T10:17:53.776Z,20.13
2023-05-12T10:18:51.794Z,20.13
2023-05-12T10:19:51.356Z,20.18
2023-05-12T10:20:51.283Z,20.23
2023-05-12T10:21:51.248Z,20.27
2023-05-12T10:22:51.276Z,20.31
2023-05-12T10:23:51.282Z,20.33
2023-05-12T10:24:51.216Z,20.23
2023-05-12T10:25:51.251Z,20.20
2023-05-12T10:26:51.225Z,20.23
2023-05-12T10:27:51.187Z,20.24
2023-05-12T10:28:51.205Z,20.24
2023-05-12T10:29:51.541Z,20.27
2023-05-12T10:30:51.156Z,20.20
2023-05-12T10:31:51.179Z,20.21
2023-05-12T10:32:51.184Z,20.18
2023-05-12T10:33:51.117Z,20.10
2023-05-12T10:34:51.131Z,19.98
2023-05-12T10:35:51.099Z,19.97
2023-05-12T10:36:51.086Z,20.08
2023-05-12T10:37:51.088Z,20.20
2023-05-12T10:38:51.057Z,20.25
2023-05-12T10:39:51.083Z,20.38
2023-05-12T10:40:51.061Z,20.38
2023-05-12T10:41:52.233Z,20.39
2023-05-12T10:42:51.027Z,20.42
2023-05-12T10:43:51.004Z,20.39
2023-05-12T10:44:51.089Z,20.31
2023-05-12T10:45:50.973Z,20.31
2023-05-12T10:46:51.055Z,20.33
2023-05-12T10:47:51.091Z,20.31
2023-05-12T10:48:50.940Z,20.35
2023-05-12T10:49:50.923Z,20.43
2023-05-12T10:50:50.955Z,20.39
2023-05-12T10:51:50.922Z,20.50
2023-05-12T10:52:50.922Z,20.54
2023-05-12T10:53:54.289Z,20.53
2023-05-12T10:54:50.899Z,20.54
2023-05-12T10:55:51.098Z,20.64
2023-05-12T10:56:51.376Z,20.71
2023-05-12T10:57:51.160Z,20.76
2023-05-12T10:58:51.094Z,20.79
2023-05-12T10:59:51.602Z,20.91
2023-05-12T11:00:51.423Z,20.99
2023-05-12T11:01:51.545Z,21.01
2023-05-12T11:02:52.377Z,21.08
2023-05-12T11:03:51.351Z,20.87
2023-05-12T11:04:50.935Z,20.74
2023-05-12T11:05:50.859Z,20.62
2023-05-12T11:06:51.627Z,20.51
2023-05-12T11:07:51.017Z,20.39
2023-05-12T11:08:51.109Z,20.34
2023-05-12T11:09:58.592Z,20.42
2023-05-12T11:10:51.797Z,20.59
2023-05-12T11:11:51.951Z,20.81
2023-05-12T11:12:50.670Z,20.90
2023-05-12T11:13:50.662Z,21.08
2023-05-12T11:14:50.772Z,21.23
2023-05-12T11:15:50.700Z,21.32
2023-05-12T11:16:50.654Z,21.35
2023-05-12T11:17:50.701Z,21.32
2023-05-12T11:18:50.641Z,21.24
2023-05-12T11:19:50.620Z,21.23
2023-05-12T11:20:50.577Z,21.20
2023-05-12T11:21:50.588Z,21.20
2023-05-12T11:22:50.555Z,21.23
2023-05-12T11:23:50.535Z,21.38
2023-05-12T11:24:50.535Z,21.42
2023-05-12T11:25:50.551Z,21.41
2023-05-12T11:26:50.546Z,21.34
2023-05-12T11:27:50.505Z,21.35
2023-05-12T11:28:50.501Z,21.41
2023-05-12T11:29:50.479Z,21.45
2023-05-12T11:30:52.532Z,21.44
2023-05-12T11:31:50.466Z,21.41
2023-05-12T11:32:50.509Z,21.42
2023-05-12T11:33:58.680Z,21.46
2023-05-12T11:34:51.450Z,21.45
2023-05-12T11:35:50.398Z,21.50
2023-05-12T11:36:50.402Z,21.53
2023-05-12T11:37:50.388Z,21.59
2023-05-12T11:38:50.388Z,21.63
2023-05-12T11:39:50.413Z,21.60
2023-05-12T11:40:50.369Z,21.54
2023-05-12T11:41:52.986Z,21.35
2023-05-12T11:42:51.352Z,21.19
2023-05-12T11:43:50.312Z,21.17
2023-05-12T11:44:50.503Z,21.27
2023-05-12T11:45:50.355Z,21.21
2023-05-12T11:46:50.316Z,21.20
2023-05-12T11:47:50.364Z,21.21
2023-05-12T11:48:50.252Z,21.27
2023-05-12T11:49:50.270Z,21.32
2023-05-12T11:50:50.235Z,21.35
2023-05-12T11:51:50.231Z,21.35
2023-05-12T11:52:50.234Z,21.38
2023-05-12T11:53:50.169Z,21.36
2023-05-12T11:54:50.216Z,21.39
2023-05-12T11:55:50.169Z,21.46
2023-05-12T11:56:50.174Z,21.57
2023-05-12T11:57:50.164Z,21.61
2023-05-12T11:58:50.146Z,21.66
2023-05-12T11:59:50.147Z,21.72
2023-05-12T12:00:50.188Z,21.72
2023-05-12T12:01:50.095Z,21.75
2023-05-12T12:02:50.430Z,21.74
2023-05-12T12:03:50.313Z,21.71
2023-05-12T12:04:50.084Z,21.75
2023-05-12T12:05:50.050Z,21.79
2023-05-12T12:06:50.098Z,21.85
2023-05-12T12:07:50.028Z,21.88
2023-05-12T12:08:50.043Z,21.97
2023-05-12T12:09:50.011Z,21.97
2023-05-12T12:10:50.029Z,21.95
2023-05-12T12:11:49.980Z,22.01
2023-05-12T12:12:50.034Z,21.94
2023-05-12T12:13:50.201Z,21.88
2023-05-12T12:14:49.971Z,21.82
2023-05-12T12:15:49.961Z,21.81
2023-05-12T12:16:49.935Z,21.75
2023-05-12T12:17:49.966Z,21.72
2023-05-12T12:18:49.986Z,21.71
2023-05-12T12:19:49.902Z,21.64
2023-05-12T12:20:49.932Z,21.71
2023-05-12T12:21:49.879Z,21.72
2023-05-12T12:22:49.885Z,21.71
2023-05-12T12:23:51.714Z,21.69
2023-05-12T12:24:49.863Z,21.63
2023-05-12T12:25:49.829Z,21.78
2023-05-12T12:26:49.855Z,22.01
2023-05-12T12:27:49.823Z,22.02
2023-05-12T12:28:49.807Z,21.94
2023-05-12T12:29:49.776Z,21.90
2023-05-12T12:30:49.923Z,21.88
2023-05-12T12:31:49.862Z,21.82
2023-05-12T12:32:50.500Z,21.75
2023-05-12T12:33:49.728Z,21.66
2023-05-12T12:34:49.785Z,21.61
2023-05-12T12:35:49.712Z,21.59
2023-05-12T12:36:49.699Z,21.71
2023-05-12T12:37:49.670Z,21.82
2023-05-12T12:38:49.669Z,21.94
2023-05-12T12:39:49.773Z,21.91
2023-05-12T12:40:49.643Z,21.82
2023-05-12T12:41:49.654Z,21.71
2023-05-12T12:42:49.615Z,21.66
2023-05-12T12:43:49.660Z,21.61
2023-05-12T12:44:49.603Z,21.69
2023-05-12T12:45:49.640Z,21.67
2023-05-12T12:46:49.682Z,21.61
2023-05-12T12:47:49.655Z,21.57
2023-05-12T12:48:49.580Z,21.50
2023-05-12T12:49:49.565Z,21.44
2023-05-12T12:50:49.525Z,21.50
2023-05-12T12:51:49.563Z,21.60
2023-05-12T12:52:49.511Z,21.71
2023-05-12T12:53:49.532Z,21.78
2023-05-12T12:54:49.497Z,21.78